sensor_id;sensor_type;location;lat;lon;timestamp;P1;durP1;ratioP1;P2;durP2;ratioP2
74369;SDS011;62805;44.644;10.942;2022-11-18T00:00:30;102.47;;;32.95;;
74369;SDS011;62805;44.644;10.942;2022-11-18T00:02:55;124.07;;;36.45;;
74369;SDS011;62805;44.644;10.942;2022-11-18T00:05:21;107.25;;;32.72;;
74369;SDS011;62805;44.644;10.942;2022-11-18T00:07:46;114.95;;;32.85;;
74369;SDS011;62805;44.644;10.942;2022-11-18T00:10:13;122.35;;;37.70;;
74369;SDS011;62805;44.644;10.942;2022-11-18T00:12:38;127.75;;;33.60;;
74369;SDS011;62805;44.644;10.942;2022-11-18T00:15:23;120.43;;;32.42;;
74369;SDS011;62805;44.644;10.942;2022-11-18T00:17:48;116.10;;;32.38;;
74369;SDS011;62805;44.644;10.942;2022-11-18T00:20:14;120.53;;;31.92;;
74369;SDS011;62805;44.644;10.942;2022-11-18T00:22:39;128.75;;;37.95;;
74369;SDS011;62805;44.644;10.942;2022-11-18T00:25:04;120.07;;;33.75;;
74369;SDS011;62805;44.644;10.942;2022-11-18T00:27:30;103.22;;;32.10;;
74369;SDS011;62805;44.644;10.942;2022-11-18T00:29:56;126.95;;;35.58;;
74369;SDS011;62805;44.644;10.942;2022-11-18T00:32:22;116.30;;;35.33;;
74369;SDS011;62805;44.644;10.942;2022-11-18T00:34:47;124.18;;;33.30;;
74369;SDS011;62805;44.644;10.942;2022-11-18T00:37:13;110.93;;;33.75;;
74369;SDS011;62805;44.644;10.942;2022-11-18T00:39:38;125.03;;;34.95;;
74369;SDS011;62805;44.644;10.942;2022-11-18T00:42:03;138.23;;;37.23;;
74369;SDS011;62805;44.644;10.942;2022-11-18T00:44:47;153.73;;;38.58;;
74369;SDS011;62805;44.644;10.942;2022-11-18T00:47:13;137.65;;;35.35;;
74369;SDS011;62805;44.644;10.942;2022-11-18T00:49:38;139.05;;;37.58;;
74369;SDS011;62805;44.644;10.942;2022-11-18T00:52:03;153.27;;;39.40;;
74369;SDS011;62805;44.644;10.942;2022-11-18T00:54:30;150.20;;;37.65;;
74369;SDS011;62805;44.644;10.942;2022-11-18T00:56:55;169.10;;;38.70;;
74369;SDS011;62805;44.644;10.942;2022-11-18T00:59:21;167.27;;;35.53;;
74369;SDS011;62805;44.644;10.942;2022-11-18T01:01:46;150.88;;;35.72;;
74369;SDS011;62805;44.644;10.942;2022-11-18T01:04:13;164.77;;;37.15;;
74369;SDS011;62805;44.644;10.942;2022-11-18T01:06:38;183.15;;;40.78;;
74369;SDS011;62805;44.644;10.942;2022-11-18T01:09:04;202.23;;;43.97;;
74369;SDS011;62805;44.644;10.942;2022-11-18T01:11:29;169.18;;;38.72;;
74369;SDS011;62805;44.644;10.942;2022-11-18T01:14:13;176.05;;;39.05;;
74369;SDS011;62805;44.644;10.942;2022-11-18T01:16:39;182.68;;;41.28;;
74369;SDS011;62805;44.644;10.942;2022-11-18T01:19:04;160.65;;;39.05;;
74369;SDS011;62805;44.644;10.942;2022-11-18T01:21:29;185.30;;;41.67;;
74369;SDS011;62805;44.644;10.942;2022-11-18T01:23:55;195.40;;;43.85;;
74369;SDS011;62805;44.644;10.942;2022-11-18T01:26:20;186.77;;;40.53;;
74369;SDS011;62805;44.644;10.942;2022-11-18T01:28:45;212.20;;;45.58;;
74369;SDS011;62805;44.644;10.942;2022-11-18T01:31:12;214.68;;;43.88;;
74369;SDS011;62805;44.644;10.942;2022-11-18T01:33:39;224.80;;;46.20;;
74369;SDS011;62805;44.644;10.942;2022-11-18T01:36:13;230.73;;;45.60;;
74369;SDS011;62805;44.644;10.942;2022-11-18T01:38:43;194.32;;;41.83;;
74369;SDS011;62805;44.644;10.942;2022-11-18T01:41:08;210.32;;;44.83;;
74369;SDS011;62805;44.644;10.942;2022-11-18T01:46:19;200.90;;;44.58;;
74369;SDS011;62805;44.644;10.942;2022-11-18T01:48:45;210.82;;;43.95;;
74369;SDS011;62805;44.644;10.942;2022-11-18T01:51:15;207.95;;;44.10;;
74369;SDS011;62805;44.644;10.942;2022-11-18T01:53:42;187.30;;;41.85;;
74369;SDS011;62805;44.644;10.942;2022-11-18T01:56:23;217.15;;;44.47;;
74369;SDS011;62805;44.644;10.942;2022-11-18T01:58:56;203.75;;;43.53;;
74369;SDS011;62805;44.644;10.942;2022-11-18T02:01:24;209.70;;;43.28;;
74369;SDS011;62805;44.644;10.942;2022-11-18T02:03:49;197.60;;;44.08;;
74369;SDS011;62805;44.644;10.942;2022-11-18T02:06:15;183.48;;;40.38;;
74369;SDS011;62805;44.644;10.942;2022-11-18T02:08:41;196.15;;;43.85;;
74369;SDS011;62805;44.644;10.942;2022-11-18T02:11:10;212.82;;;45.13;;
74369;SDS011;62805;44.644;10.942;2022-11-18T02:13:57;187.15;;;43.78;;
74369;SDS011;62805;44.644;10.942;2022-11-18T02:16:26;192.77;;;42.92;;
74369;SDS011;62805;44.644;10.942;2022-11-18T02:18:59;176.65;;;40.88;;
74369;SDS011;62805;44.644;10.942;2022-11-18T02:30:07;185.82;;;43.47;;
74369;SDS011;62805;44.644;10.942;2022-11-18T02:37:56;166.43;;;39.85;;
74369;SDS011;62805;44.644;10.942;2022-11-18T02:40:37;162.52;;;40.88;;
74369;SDS011;62805;44.644;10.942;2022-11-18T02:43:07;143.27;;;36.83;;
74369;SDS011;62805;44.644;10.942;2022-11-18T02:45:36;169.77;;;41.83;;
74369;SDS011;62805;44.644;10.942;2022-11-18T02:50:33;161.70;;;38.05;;
74369;SDS011;62805;44.644;10.942;2022-11-18T02:53:00;165.98;;;38.10;;
74369;SDS011;62805;44.644;10.942;2022-11-18T02:55:28;166.10;;;40.42;;
74369;SDS011;62805;44.644;10.942;2022-11-18T02:57:56;169.85;;;39.13;;
74369;SDS011;62805;44.644;10.942;2022-11-18T03:00:22;154.95;;;37.28;;
74369;SDS011;62805;44.644;10.942;2022-11-18T03:02:48;201.07;;;41.63;;
74369;SDS011;62805;44.644;10.942;2022-11-18T03:05:18;181.20;;;39.80;;
74369;SDS011;62805;44.644;10.942;2022-11-18T03:07:59;172.00;;;39.67;;
74369;SDS011;62805;44.644;10.942;2022-11-18T03:10:40;148.32;;;38.15;;
74369;SDS011;62805;44.644;10.942;2022-11-18T03:13:19;164.68;;;36.33;;
74369;SDS011;62805;44.644;10.942;2022-11-18T03:15:54;141.98;;;33.78;;
74369;SDS011;62805;44.644;10.942;2022-11-18T03:18:53;151.55;;;36.90;;
74369;SDS011;62805;44.644;10.942;2022-11-18T03:21:28;165.93;;;40.42;;
74369;SDS011;62805;44.644;10.942;2022-11-18T03:24:05;171.75;;;40.55;;
74369;SDS011;62805;44.644;10.942;2022-11-18T03:26:32;151.02;;;35.40;;
74369;SDS011;62805;44.644;10.942;2022-11-18T03:29:04;192.75;;;43.65;;
74369;SDS011;62805;44.644;10.942;2022-11-18T03:34:24;196.25;;;45.72;;
74369;SDS011;62805;44.644;10.942;2022-11-18T03:39:19;188.52;;;40.78;;
74369;SDS011;62805;44.644;10.942;2022-11-18T03:41:47;196.82;;;43.50;;
74369;SDS011;62805;44.644;10.942;2022-11-18T03:44:25;208.70;;;46.75;;
74369;SDS011;62805;44.644;10.942;2022-11-18T03:47:10;126.63;;;30.35;;
74369;SDS011;62805;44.644;10.942;2022-11-18T03:49:41;207.27;;;45.35;;
74369;SDS011;62805;44.644;10.942;2022-11-18T03:52:21;180.38;;;40.47;;
74369;SDS011;62805;44.644;10.942;2022-11-18T03:54:49;191.88;;;44.50;;
74369;SDS011;62805;44.644;10.942;2022-11-18T03:57:21;155.90;;;39.45;;
74369;SDS011;62805;44.644;10.942;2022-11-18T03:59:55;175.85;;;43.30;;
74369;SDS011;62805;44.644;10.942;2022-11-18T04:02:24;162.70;;;41.55;;
74369;SDS011;62805;44.644;10.942;2022-11-18T04:04:51;165.57;;;43.03;;
74369;SDS011;62805;44.644;10.942;2022-11-18T04:07:21;184.88;;;42.75;;
74369;SDS011;62805;44.644;10.942;2022-11-18T04:09:56;163.73;;;39.75;;
74369;SDS011;62805;44.644;10.942;2022-11-18T04:12:23;176.68;;;44.30;;
74369;SDS011;62805;44.644;10.942;2022-11-18T04:14:50;173.95;;;44.88;;
74369;SDS011;62805;44.644;10.942;2022-11-18T04:17:20;129.30;;;35.60;;
74369;SDS011;62805;44.644;10.942;2022-11-18T04:19:46;159.80;;;41.17;;
74369;SDS011;62805;44.644;10.942;2022-11-18T04:22:12;144.00;;;38.20;;
74369;SDS011;62805;44.644;10.942;2022-11-18T04:24:37;140.43;;;38.65;;
74369;SDS011;62805;44.644;10.942;2022-11-18T04:27:03;130.73;;;35.40;;
74369;SDS011;62805;44.644;10.942;2022-11-18T04:29:29;135.30;;;38.38;;
74369;SDS011;62805;44.644;10.942;2022-11-18T04:31:55;125.18;;;36.90;;
74369;SDS011;62805;44.644;10.942;2022-11-18T04:34:21;128.73;;;37.83;;
74369;SDS011;62805;44.644;10.942;2022-11-18T04:36:46;132.75;;;36.63;;
74369;SDS011;62805;44.644;10.942;2022-11-18T04:39:12;136.07;;;37.38;;
74369;SDS011;62805;44.644;10.942;2022-11-18T04:41:37;142.75;;;39.70;;
74369;SDS011;62805;44.644;10.942;2022-11-18T04:44:21;142.00;;;37.72;;
74369;SDS011;62805;44.644;10.942;2022-11-18T04:46:47;145.57;;;39.03;;
74369;SDS011;62805;44.644;10.942;2022-11-18T04:49:13;137.57;;;38.67;;
74369;SDS011;62805;44.644;10.942;2022-11-18T04:51:39;124.72;;;36.75;;
74369;SDS011;62805;44.644;10.942;2022-11-18T04:54:05;124.38;;;38.25;;
74369;SDS011;62805;44.644;10.942;2022-11-18T04:56:31;148.35;;;39.55;;
74369;SDS011;62805;44.644;10.942;2022-11-18T04:59:00;128.63;;;38.65;;
74369;SDS011;62805;44.644;10.942;2022-11-18T05:01:26;141.95;;;39.30;;
74369;SDS011;62805;44.644;10.942;2022-11-18T05:03:54;140.18;;;37.83;;
74369;SDS011;62805;44.644;10.942;2022-11-18T05:06:19;139.00;;;37.92;;
74369;SDS011;62805;44.644;10.942;2022-11-18T05:08:45;135.48;;;38.85;;
74369;SDS011;62805;44.644;10.942;2022-11-18T05:11:10;150.55;;;39.97;;
74369;SDS011;62805;44.644;10.942;2022-11-18T05:13:54;143.93;;;39.15;;
74369;SDS011;62805;44.644;10.942;2022-11-18T05:16:19;140.20;;;39.70;;
74369;SDS011;62805;44.644;10.942;2022-11-18T05:18:45;138.05;;;38.95;;
74369;SDS011;62805;44.644;10.942;2022-11-18T05:21:10;156.15;;;41.42;;
74369;SDS011;62805;44.644;10.942;2022-11-18T05:23:37;142.48;;;39.40;;
74369;SDS011;62805;44.644;10.942;2022-11-18T05:26:03;140.23;;;39.47;;
74369;SDS011;62805;44.644;10.942;2022-11-18T05:28:29;141.18;;;38.20;;
74369;SDS011;62805;44.644;10.942;2022-11-18T05:30:54;151.55;;;43.03;;
74369;SDS011;62805;44.644;10.942;2022-11-18T05:33:20;140.23;;;40.03;;
74369;SDS011;62805;44.644;10.942;2022-11-18T05:35:45;142.88;;;39.42;;
74369;SDS011;62805;44.644;10.942;2022-11-18T05:38:11;155.75;;;41.33;;
74369;SDS011;62805;44.644;10.942;2022-11-18T05:40:36;145.90;;;40.83;;
74369;SDS011;62805;44.644;10.942;2022-11-18T05:43:02;155.80;;;41.10;;
74369;SDS011;62805;44.644;10.942;2022-11-18T05:45:37;153.38;;;42.20;;
74369;SDS011;62805;44.644;10.942;2022-11-18T05:48:06;149.98;;;39.35;;
74369;SDS011;62805;44.644;10.942;2022-11-18T05:50:35;146.45;;;38.67;;
74369;SDS011;62805;44.644;10.942;2022-11-18T05:53:02;142.88;;;35.00;;
74369;SDS011;62805;44.644;10.942;2022-11-18T05:55:30;140.68;;;35.88;;
74369;SDS011;62805;44.644;10.942;2022-11-18T05:57:59;151.73;;;36.60;;
74369;SDS011;62805;44.644;10.942;2022-11-18T06:00:25;143.00;;;32.80;;
74369;SDS011;62805;44.644;10.942;2022-11-18T06:02:50;138.55;;;35.83;;
74369;SDS011;62805;44.644;10.942;2022-11-18T06:05:18;149.00;;;35.72;;
74369;SDS011;62805;44.644;10.942;2022-11-18T06:07:45;123.60;;;34.13;;
74369;SDS011;62805;44.644;10.942;2022-11-18T06:10:12;130.15;;;36.47;;
74369;SDS011;62805;44.644;10.942;2022-11-18T06:12:42;127.20;;;32.30;;
74369;SDS011;62805;44.644;10.942;2022-11-18T06:15:26;125.75;;;33.65;;
74369;SDS011;62805;44.644;10.942;2022-11-18T06:20:24;123.15;;;31.98;;
74369;SDS011;62805;44.644;10.942;2022-11-18T06:22:51;148.88;;;37.65;;
74369;SDS011;62805;44.644;10.942;2022-11-18T06:25:19;146.93;;;35.85;;
74369;SDS011;62805;44.644;10.942;2022-11-18T06:27:44;146.68;;;34.28;;
74369;SDS011;62805;44.644;10.942;2022-11-18T06:30:10;164.63;;;37.28;;
74369;SDS011;62805;44.644;10.942;2022-11-18T06:32:36;160.18;;;37.67;;
74369;SDS011;62805;44.644;10.942;2022-11-18T06:35:01;153.77;;;38.37;;
74369;SDS011;62805;44.644;10.942;2022-11-18T06:37:27;156.00;;;37.75;;
74369;SDS011;62805;44.644;10.942;2022-11-18T06:39:52;155.60;;;36.07;;
74369;SDS011;62805;44.644;10.942;2022-11-18T06:42:18;152.55;;;37.22;;
74369;SDS011;62805;44.644;10.942;2022-11-18T06:45:02;153.30;;;35.65;;
74369;SDS011;62805;44.644;10.942;2022-11-18T06:47:28;148.02;;;36.97;;
74369;SDS011;62805;44.644;10.942;2022-11-18T06:49:53;142.40;;;36.83;;
74369;SDS011;62805;44.644;10.942;2022-11-18T06:52:20;141.80;;;35.42;;
74369;SDS011;62805;44.644;10.942;2022-11-18T06:54:46;128.80;;;34.47;;
74369;SDS011;62805;44.644;10.942;2022-11-18T06:57:11;114.83;;;33.13;;
74369;SDS011;62805;44.644;10.942;2022-11-18T06:59:36;121.73;;;34.00;;
74369;SDS011;62805;44.644;10.942;2022-11-18T07:02:02;115.47;;;32.38;;
74369;SDS011;62805;44.644;10.942;2022-11-18T07:04:27;125.90;;;34.03;;
74369;SDS011;62805;44.644;10.942;2022-11-18T07:06:52;109.15;;;34.13;;
74369;SDS011;62805;44.644;10.942;2022-11-18T07:09:18;102.15;;;32.85;;
74369;SDS011;62805;44.644;10.942;2022-11-18T07:11:43;106.15;;;35.45;;
74369;SDS011;62805;44.644;10.942;2022-11-18T07:14:09;109.07;;;34.67;;
74369;SDS011;62805;44.644;10.942;2022-11-18T07:19:06;105.10;;;31.70;;
74369;SDS011;62805;44.644;10.942;2022-11-18T07:21:33;102.35;;;35.20;;
74369;SDS011;62805;44.644;10.942;2022-11-18T07:23:58;109.13;;;35.63;;
74369;SDS011;62805;44.644;10.942;2022-11-18T07:26:24;99.75;;;37.13;;
74369;SDS011;62805;44.644;10.942;2022-11-18T07:28:49;103.28;;;37.72;;
74369;SDS011;62805;44.644;10.942;2022-11-18T07:31:18;110.20;;;39.50;;
74369;SDS011;62805;44.644;10.942;2022-11-18T07:33:44;105.05;;;36.55;;
74369;SDS011;62805;44.644;10.942;2022-11-18T07:36:17;96.05;;;36.60;;
74369;SDS011;62805;44.644;10.942;2022-11-18T07:38:44;103.40;;;37.63;;
74369;SDS011;62805;44.644;10.942;2022-11-18T07:41:11;95.85;;;36.05;;
74369;SDS011;62805;44.644;10.942;2022-11-18T07:43:41;91.38;;;35.60;;
74369;SDS011;62805;44.644;10.942;2022-11-18T07:46:17;90.88;;;35.78;;
74369;SDS011;62805;44.644;10.942;2022-11-18T07:48:48;93.13;;;35.90;;
74369;SDS011;62805;44.644;10.942;2022-11-18T07:51:15;89.18;;;31.95;;
74369;SDS011;62805;44.644;10.942;2022-11-18T07:53:42;87.25;;;33.50;;
74369;SDS011;62805;44.644;10.942;2022-11-18T07:56:08;84.43;;;31.92;;
74369;SDS011;62805;44.644;10.942;2022-11-18T07:58:34;83.25;;;33.17;;
74369;SDS011;62805;44.644;10.942;2022-11-18T08:01:33;87.18;;;32.92;;
74369;SDS011;62805;44.644;10.942;2022-11-18T08:03:53;80.28;;;31.70;;
74369;SDS011;62805;44.644;10.942;2022-11-18T08:06:20;81.35;;;31.70;;
74369;SDS011;62805;44.644;10.942;2022-11-18T08:08:46;76.20;;;30.40;;
74369;SDS011;62805;44.644;10.942;2022-11-18T08:11:13;77.45;;;31.40;;
74369;SDS011;62805;44.644;10.942;2022-11-18T08:13:39;77.03;;;29.65;;
74369;SDS011;62805;44.644;10.942;2022-11-18T08:16:10;79.15;;;29.67;;
74369;SDS011;62805;44.644;10.942;2022-11-18T08:18:46;73.57;;;29.45;;
74369;SDS011;62805;44.644;10.942;2022-11-18T08:21:12;73.55;;;29.13;;
74369;SDS011;62805;44.644;10.942;2022-11-18T08:23:39;69.72;;;29.63;;
74369;SDS011;62805;44.644;10.942;2022-11-18T08:26:12;71.95;;;28.67;;
74369;SDS011;62805;44.644;10.942;2022-11-18T08:28:42;73.80;;;28.90;;
74369;SDS011;62805;44.644;10.942;2022-11-18T08:33:37;71.60;;;28.90;;
74369;SDS011;62805;44.644;10.942;2022-11-18T08:36:06;64.93;;;29.45;;
74369;SDS011;62805;44.644;10.942;2022-11-18T08:38:33;64.72;;;26.67;;
74369;SDS011;62805;44.644;10.942;2022-11-18T08:40:59;61.20;;;25.35;;
74369;SDS011;62805;44.644;10.942;2022-11-18T08:43:25;63.20;;;26.92;;
74369;SDS011;62805;44.644;10.942;2022-11-18T08:45:50;64.70;;;26.00;;
74369;SDS011;62805;44.644;10.942;2022-11-18T08:48:15;59.87;;;28.10;;
74369;SDS011;62805;44.644;10.942;2022-11-18T08:50:42;58.72;;;25.05;;
74369;SDS011;62805;44.644;10.942;2022-11-18T08:53:08;61.28;;;25.48;;
74369;SDS011;62805;44.644;10.942;2022-11-18T08:55:33;58.10;;;26.20;;
74369;SDS011;62805;44.644;10.942;2022-11-18T08:57:58;61.50;;;26.43;;
74369;SDS011;62805;44.644;10.942;2022-11-18T09:00:24;59.60;;;27.20;;
74369;SDS011;62805;44.644;10.942;2022-11-18T09:02:49;56.63;;;25.30;;
74369;SDS011;62805;44.644;10.942;2022-11-18T09:05:14;60.13;;;24.23;;
74369;SDS011;62805;44.644;10.942;2022-11-18T09:07:40;56.97;;;23.77;;
74369;SDS011;62805;44.644;10.942;2022-11-18T09:10:05;64.20;;;27.35;;
74369;SDS011;62805;44.644;10.942;2022-11-18T09:12:31;62.70;;;24.10;;
74369;SDS011;62805;44.644;10.942;2022-11-18T09:14:57;65.07;;;26.40;;
74369;SDS011;62805;44.644;10.942;2022-11-18T09:17:22;74.25;;;30.00;;
74369;SDS011;62805;44.644;10.942;2022-11-18T09:19:47;63.13;;;28.33;;
74369;SDS011;62805;44.644;10.942;2022-11-18T09:22:13;64.60;;;26.00;;
74369;SDS011;62805;44.644;10.942;2022-11-18T09:24:38;65.97;;;27.13;;
74369;SDS011;62805;44.644;10.942;2022-11-18T09:27:05;69.38;;;29.58;;
74369;SDS011;62805;44.644;10.942;2022-11-18T09:29:31;70.35;;;28.85;;
74369;SDS011;62805;44.644;10.942;2022-11-18T09:31:57;67.85;;;26.70;;
74369;SDS011;62805;44.644;10.942;2022-11-18T09:34:25;68.43;;;26.08;;
74369;SDS011;62805;44.644;10.942;2022-11-18T09:36:51;74.10;;;27.47;;
74369;SDS011;62805;44.644;10.942;2022-11-18T09:39:19;64.20;;;25.58;;
74369;SDS011;62805;44.644;10.942;2022-11-18T09:47:33;64.57;;;24.70;;
74369;SDS011;62805;44.644;10.942;2022-11-18T09:50:04;65.55;;;25.08;;
74369;SDS011;62805;44.644;10.942;2022-11-18T09:52:32;63.00;;;26.70;;
74369;SDS011;62805;44.644;10.942;2022-11-18T09:55:03;67.22;;;25.02;;
74369;SDS011;62805;44.644;10.942;2022-11-18T09:57:39;69.57;;;27.05;;
74369;SDS011;62805;44.644;10.942;2022-11-18T10:00:14;65.05;;;23.65;;
74369;SDS011;62805;44.644;10.942;2022-11-18T10:08:29;61.30;;;23.38;;
74369;SDS011;62805;44.644;10.942;2022-11-18T10:16:31;65.30;;;25.23;;
74369;SDS011;62805;44.644;10.942;2022-11-18T10:25:11;67.32;;;24.25;;
74369;SDS011;62805;44.644;10.942;2022-11-18T10:27:39;62.22;;;24.35;;
74369;SDS011;62805;44.644;10.942;2022-11-18T10:30:19;67.97;;;25.63;;
74369;SDS011;62805;44.644;10.942;2022-11-18T10:35:27;67.50;;;22.73;;
74369;SDS011;62805;44.644;10.942;2022-11-18T10:38:30;62.72;;;23.80;;
74369;SDS011;62805;44.644;10.942;2022-11-18T10:43:40;68.37;;;24.30;;
74369;SDS011;62805;44.644;10.942;2022-11-18T10:46:41;59.97;;;22.98;;
74369;SDS011;62805;44.644;10.942;2022-11-18T10:51:37;63.33;;;23.85;;
74369;SDS011;62805;44.644;10.942;2022-11-18T10:59:29;59.40;;;22.80;;
74369;SDS011;62805;44.644;10.942;2022-11-18T11:04:45;56.60;;;21.85;;
74369;SDS011;62805;44.644;10.942;2022-11-18T11:12:38;58.13;;;22.60;;
74369;SDS011;62805;44.644;10.942;2022-11-18T11:15:18;51.72;;;22.85;;
74369;SDS011;62805;44.644;10.942;2022-11-18T11:18:06;60.17;;;21.80;;
74369;SDS011;62805;44.644;10.942;2022-11-18T11:20:54;49.50;;;19.38;;
74369;SDS011;62805;44.644;10.942;2022-11-18T11:23:22;55.47;;;21.55;;
74369;SDS011;62805;44.644;10.942;2022-11-18T11:28:42;53.22;;;22.23;;
74369;SDS011;62805;44.644;10.942;2022-11-18T11:33:51;49.47;;;19.35;;
74369;SDS011;62805;44.644;10.942;2022-11-18T11:42:01;46.03;;;19.65;;
74369;SDS011;62805;44.644;10.942;2022-11-18T11:44:47;43.75;;;16.92;;
74369;SDS011;62805;44.644;10.942;2022-11-18T11:47:28;40.50;;;18.67;;
74369;SDS011;62805;44.644;10.942;2022-11-18T11:59:24;43.17;;;18.48;;
74369;SDS011;62805;44.644;10.942;2022-11-18T12:07:18;38.60;;;16.10;;
74369;SDS011;62805;44.644;10.942;2022-11-18T12:15:19;38.58;;;16.92;;
74369;SDS011;62805;44.644;10.942;2022-11-18T12:20:59;37.78;;;16.17;;
74369;SDS011;62805;44.644;10.942;2022-11-18T12:23:28;43.78;;;17.50;;
74369;SDS011;62805;44.644;10.942;2022-11-18T12:26:00;40.88;;;18.42;;
74369;SDS011;62805;44.644;10.942;2022-11-18T12:33:42;45.92;;;18.70;;
74369;SDS011;62805;44.644;10.942;2022-11-18T12:36:08;46.65;;;19.30;;
74369;SDS011;62805;44.644;10.942;2022-11-18T12:38:34;41.38;;;18.98;;
74369;SDS011;62805;44.644;10.942;2022-11-18T12:40:59;47.10;;;20.13;;
74369;SDS011;62805;44.644;10.942;2022-11-18T12:48:50;40.83;;;17.42;;
74369;SDS011;62805;44.644;10.942;2022-11-18T12:56:22;39.30;;;17.25;;
74369;SDS011;62805;44.644;10.942;2022-11-18T12:59:00;41.90;;;15.75;;
74369;SDS011;62805;44.644;10.942;2022-11-18T13:01:30;35.85;;;16.63;;
74369;SDS011;62805;44.644;10.942;2022-11-18T13:04:11;38.72;;;17.05;;
74369;SDS011;62805;44.644;10.942;2022-11-18T13:06:39;38.30;;;16.73;;
74369;SDS011;62805;44.644;10.942;2022-11-18T13:11:58;32.08;;;13.38;;
74369;SDS011;62805;44.644;10.942;2022-11-18T13:17:41;35.97;;;15.90;;
74369;SDS011;62805;44.644;10.942;2022-11-18T13:23:01;33.28;;;15.48;;
74369;SDS011;62805;44.644;10.942;2022-11-18T13:25:47;38.72;;;15.75;;
74369;SDS011;62805;44.644;10.942;2022-11-18T13:30:58;36.78;;;15.85;;
74369;SDS011;62805;44.644;10.942;2022-11-18T13:33:34;34.10;;;14.95;;
74369;SDS011;62805;44.644;10.942;2022-11-18T13:36:00;37.88;;;16.42;;
74369;SDS011;62805;44.644;10.942;2022-11-18T13:38:26;34.67;;;16.17;;
74369;SDS011;62805;44.644;10.942;2022-11-18T13:40:51;34.05;;;17.17;;
74369;SDS011;62805;44.644;10.942;2022-11-18T13:43:29;36.38;;;16.23;;
74369;SDS011;62805;44.644;10.942;2022-11-18T13:45:57;35.92;;;17.30;;
74369;SDS011;62805;44.644;10.942;2022-11-18T13:48:27;35.72;;;16.05;;
74369;SDS011;62805;44.644;10.942;2022-11-18T13:50:53;36.03;;;16.83;;
74369;SDS011;62805;44.644;10.942;2022-11-18T13:53:30;38.28;;;17.88;;
74369;SDS011;62805;44.644;10.942;2022-11-18T13:55:59;39.70;;;18.27;;
74369;SDS011;62805;44.644;10.942;2022-11-18T13:58:43;37.45;;;17.10;;
74369;SDS011;62805;44.644;10.942;2022-11-18T14:01:19;37.45;;;16.77;;
74369;SDS011;62805;44.644;10.942;2022-11-18T14:03:47;33.80;;;16.15;;
74369;SDS011;62805;44.644;10.942;2022-11-18T14:06:27;38.35;;;17.10;;
74369;SDS011;62805;44.644;10.942;2022-11-18T14:11:44;38.88;;;17.42;;
74369;SDS011;62805;44.644;10.942;2022-11-18T14:14:11;36.95;;;16.83;;
74369;SDS011;62805;44.644;10.942;2022-11-18T14:16:52;31.25;;;15.68;;
74369;SDS011;62805;44.644;10.942;2022-11-18T14:19:30;35.25;;;17.10;;
74369;SDS011;62805;44.644;10.942;2022-11-18T14:22:03;34.90;;;16.02;;
74369;SDS011;62805;44.644;10.942;2022-11-18T14:26:55;41.40;;;19.03;;
74369;SDS011;62805;44.644;10.942;2022-11-18T14:29:20;38.63;;;17.13;;
74369;SDS011;62805;44.644;10.942;2022-11-18T14:34:40;36.78;;;16.73;;
74369;SDS011;62805;44.644;10.942;2022-11-18T14:37:13;37.33;;;17.30;;
74369;SDS011;62805;44.644;10.942;2022-11-18T14:39:39;39.15;;;17.98;;
74369;SDS011;62805;44.644;10.942;2022-11-18T14:42:09;42.72;;;19.55;;
74369;SDS011;62805;44.644;10.942;2022-11-18T14:44:35;42.05;;;18.75;;
74369;SDS011;62805;44.644;10.942;2022-11-18T14:47:01;40.33;;;17.88;;
74369;SDS011;62805;44.644;10.942;2022-11-18T14:49:28;41.78;;;18.35;;
74369;SDS011;62805;44.644;10.942;2022-11-18T14:51:59;40.13;;;17.90;;
74369;SDS011;62805;44.644;10.942;2022-11-18T14:54:28;38.97;;;18.27;;
74369;SDS011;62805;44.644;10.942;2022-11-18T14:56:59;36.55;;;17.52;;
74369;SDS011;62805;44.644;10.942;2022-11-18T14:59:25;35.15;;;17.20;;
74369;SDS011;62805;44.644;10.942;2022-11-18T15:01:51;36.30;;;17.17;;
74369;SDS011;62805;44.644;10.942;2022-11-18T15:04:16;40.25;;;18.52;;
74369;SDS011;62805;44.644;10.942;2022-11-18T15:06:43;40.70;;;18.60;;
74369;SDS011;62805;44.644;10.942;2022-11-18T15:09:08;39.97;;;18.87;;
74369;SDS011;62805;44.644;10.942;2022-11-18T15:11:35;48.00;;;18.77;;
74369;SDS011;62805;44.644;10.942;2022-11-18T15:14:01;40.25;;;18.48;;
74369;SDS011;62805;44.644;10.942;2022-11-18T15:16:28;39.22;;;17.73;;
74369;SDS011;62805;44.644;10.942;2022-11-18T15:18:54;44.80;;;18.42;;
74369;SDS011;62805;44.644;10.942;2022-11-18T15:21:21;40.83;;;18.25;;
74369;SDS011;62805;44.644;10.942;2022-11-18T15:23:47;41.05;;;17.88;;
74369;SDS011;62805;44.644;10.942;2022-11-18T15:26:19;40.30;;;17.83;;
74369;SDS011;62805;44.644;10.942;2022-11-18T15:28:46;40.92;;;17.60;;
74369;SDS011;62805;44.644;10.942;2022-11-18T15:31:12;44.08;;;19.88;;
74369;SDS011;62805;44.644;10.942;2022-11-18T15:33:38;35.58;;;17.02;;
74369;SDS011;62805;44.644;10.942;2022-11-18T15:36:08;43.75;;;17.85;;
74369;SDS011;62805;44.644;10.942;2022-11-18T15:38:36;45.08;;;18.50;;
74369;SDS011;62805;44.644;10.942;2022-11-18T15:41:01;44.42;;;18.80;;
74369;SDS011;62805;44.644;10.942;2022-11-18T15:43:27;45.10;;;19.60;;
74369;SDS011;62805;44.644;10.942;2022-11-18T15:45:55;43.63;;;18.97;;
74369;SDS011;62805;44.644;10.942;2022-11-18T15:48:22;42.58;;;18.50;;
74369;SDS011;62805;44.644;10.942;2022-11-18T15:50:47;45.30;;;20.27;;
74369;SDS011;62805;44.644;10.942;2022-11-18T15:53:13;44.75;;;19.48;;
74369;SDS011;62805;44.644;10.942;2022-11-18T15:55:38;45.95;;;20.00;;
74369;SDS011;62805;44.644;10.942;2022-11-18T15:58:04;49.50;;;21.20;;
74369;SDS011;62805;44.644;10.942;2022-11-18T16:00:29;56.00;;;23.95;;
74369;SDS011;62805;44.644;10.942;2022-11-18T16:02:54;48.53;;;21.90;;
74369;SDS011;62805;44.644;10.942;2022-11-18T16:05:21;50.88;;;20.50;;
74369;SDS011;62805;44.644;10.942;2022-11-18T16:07:46;50.37;;;20.23;;
74369;SDS011;62805;44.644;10.942;2022-11-18T16:10:12;41.67;;;18.45;;
74369;SDS011;62805;44.644;10.942;2022-11-18T16:12:56;47.10;;;18.50;;
74369;SDS011;62805;44.644;10.942;2022-11-18T16:15:21;41.95;;;19.10;;
74369;SDS011;62805;44.644;10.942;2022-11-18T16:18:06;47.05;;;20.50;;
74369;SDS011;62805;44.644;10.942;2022-11-18T16:20:31;47.27;;;19.60;;
74369;SDS011;62805;44.644;10.942;2022-11-18T16:22:56;44.38;;;19.60;;
74369;SDS011;62805;44.644;10.942;2022-11-18T16:25:22;47.53;;;19.85;;
74369;SDS011;62805;44.644;10.942;2022-11-18T16:27:48;43.63;;;20.13;;
74369;SDS011;62805;44.644;10.942;2022-11-18T16:30:13;42.05;;;19.25;;
74369;SDS011;62805;44.644;10.942;2022-11-18T16:32:58;44.38;;;19.45;;
74369;SDS011;62805;44.644;10.942;2022-11-18T16:35:24;48.00;;;20.67;;
74369;SDS011;62805;44.644;10.942;2022-11-18T16:37:50;55.45;;;22.08;;
74369;SDS011;62805;44.644;10.942;2022-11-18T16:40:15;45.67;;;20.77;;